Portage la Prairie, Canada
Current Conditions -  °F | °C
As of 5:00 AM on Saturday 25 Oct 2014 (Local Time) from CYWG Reporting Station
Clear Clear  
Wind Chill: 32°   Ceiling: Unl
Heat Index: 39°   Visibility: 15mi
Dew Point: 32°   Wind: 13mph
Humidity: 75%   Direction: 260°W
Pressure: 29.9"   Gusts: NA
Location:  49.97°N, 98.29°W
Report Text: CYWG 251000Z 26011KT 15SM SKC 04/M00 A2990 RMK SLP132
Loading
Personal Weather Stations






























Interactive Weather Map
Tropical Storm Tracking
New forecast layout! Learn more

10-Day Weather Forecast

Advertisements
Track Severe Weather on mobile